Time;durP1;ratioP1;P1;durP2;ratioP2;P2;SDS_P1;SDS_P2;PMS_P1;PMS_P2;Temp;Humidity;BMP_temperature;BMP_pressure;BME280_temperature;BME280_humidity;BME280_pressure;Samples;Min_cycle;Max_cycle;Signal;HPM_P1;HPM_P2
2023/08/16 00:00:42;;;;;;;19.00;11.23;;;;;;;21.83;82.10;100169.41;5028171;28;20026;-78
2023/08/16 00:03:08;;;;;;;18.80;12.13;;;;;;;21.81;81.99;100167.75;5026175;28;20785;-79
2023/08/16 00:05:33;;;;;;;15.55;11.63;;;;;;;21.80;82.03;100165.31;5029655;28;20747;-79
2023/08/16 00:07:59;;;;;;;16.92;10.93;;;;;;;21.80;82.16;100165.31;5029894;28;20079;-77
2023/08/16 00:10:24;;;;;;;18.23;11.43;;;;;;;21.82;82.28;100165.78;5027904;28;20172;-79
2023/08/16 00:12:49;;;;;;;16.65;10.65;;;;;;;21.85;81.81;100167.09;5029454;28;20776;-76
2023/08/16 00:15:15;;;;;;;14.93;9.87;;;;;;;21.77;82.09;100163.19;5028866;28;20029;-80
2023/08/16 00:17:40;;;;;;;17.55;10.50;;;;;;;21.73;82.17;100171.38;5028312;28;20353;-79
2023/08/16 00:20:08;;;;;;;18.77;11.25;;;;;;;21.72;82.21;100174.47;5029637;28;20173;-77
2023/08/16 00:22:34;;;;;;;17.08;11.45;;;;;;;21.68;82.48;100160.47;5014411;28;20579;-78
2023/08/16 00:24:59;;;;;;;15.93;10.68;;;;;;;21.70;82.47;100164.50;5031171;28;20048;-78
2023/08/16 00:27:24;;;;;;;21.80;11.73;;;;;;;21.73;82.57;100159.44;5030977;28;20432;-77
2023/08/16 00:29:49;;;;;;;21.23;10.73;;;;;;;21.73;82.47;100176.91;5030978;28;20536;-78
2023/08/16 00:32:15;;;;;;;13.40;10.32;;;;;;;21.73;82.55;100173.31;5029047;28;20274;-73
2023/08/16 00:34:40;;;;;;;16.17;12.77;;;;;;;21.70;82.54;100170.06;5028975;28;20044;-73
2023/08/16 00:37:05;;;;;;;16.17;11.15;;;;;;;21.69;82.63;100165.66;5028949;28;20543;-73
2023/08/16 00:39:31;;;;;;;19.60;11.07;;;;;;;21.66;82.91;100166.31;5028939;28;20075;-73
2023/08/16 00:41:56;;;;;;;15.18;10.93;;;;;;;21.68;82.80;100168.78;5028575;28;20033;-73
2023/08/16 00:44:21;;;;;;;18.57;11.40;;;;;;;21.68;82.67;100163.22;5027953;28;20053;-73
2023/08/16 00:46:47;;;;;;;17.63;10.63;;;;;;;21.67;82.77;100173.50;5027968;28;20266;-75
2023/08/16 00:49:12;;;;;;;18.85;12.05;;;;;;;21.63;82.66;100160.63;5028419;28;20933;-73
2023/08/16 00:51:38;;;;;;;22.80;12.23;;;;;;;21.54;82.88;100168.97;5028392;28;20033;-73
2023/08/16 00:54:05;;;;;;;23.27;10.40;;;;;;;21.52;83.17;100168.50;5027925;28;20038;-73
2023/08/16 00:56:30;;;;;;;18.73;11.20;;;;;;;21.54;82.95;100157.88;5029061;28;20094;-73
2023/08/16 00:58:57;;;;;;;17.23;9.55;;;;;;;21.48;82.95;100165.53;5028421;28;20029;-73
2023/08/16 01:01:22;;;;;;;13.25;8.88;;;;;;;21.42;83.08;100161.31;5027878;28;20582;-73
2023/08/16 01:03:48;;;;;;;14.95;9.32;;;;;;;21.49;83.10;100169.16;5028873;28;20102;-73
2023/08/16 01:06:14;;;;;;;15.05;9.63;;;;;;;21.50;82.69;100163.25;5027509;28;20049;-73
2023/08/16 01:08:39;;;;;;;13.40;9.05;;;;;;;21.43;82.62;100152.69;5028186;28;20694;-74
2023/08/16 01:11:11;;;;;;;14.52;10.60;;;;;;;21.33;82.88;100159.41;5027761;28;20045;-74
2023/08/16 01:13:49;;;;;;;19.45;10.68;;;;;;;21.32;82.62;100156.94;5027575;28;20498;-73
2023/08/16 01:16:16;;;;;;;15.50;9.68;;;;;;;21.27;82.66;100157.94;5028098;28;20136;-73
2023/08/16 01:18:42;;;;;;;13.73;10.20;;;;;;;21.26;82.48;100149.94;5028167;28;20501;-73
2023/08/16 01:21:12;;;;;;;16.73;9.85;;;;;;;21.23;82.62;100154.19;5010353;28;20033;-73
2023/08/16 01:23:57;;;;;;;19.90;13.20;;;;;;;21.21;82.71;100146.19;5028130;28;20021;-73
2023/08/16 01:26:35;;;;;;;15.82;11.43;;;;;;;21.21;82.49;100148.16;5028501;28;20106;-73
2023/08/16 01:29:03;;;;;;;17.77;10.98;;;;;;;21.20;82.87;100144.56;5028343;28;20014;-73
2023/08/16 01:31:28;;;;;;;20.63;13.02;;;;;;;21.11;82.35;100144.56;5030261;28;20029;-73
2023/08/16 01:33:54;;;;;;;16.30;10.93;;;;;;;20.91;83.38;100137.69;5028405;28;20430;-74
2023/08/16 01:36:19;;;;;;;18.50;12.43;;;;;;;20.82;83.95;100151.56;5027304;28;20072;-73
2023/08/16 01:38:45;;;;;;;20.90;14.00;;;;;;;20.92;83.91;100150.44;5028465;28;20033;-73
2023/08/16 01:41:20;;;;;;;16.17;10.95;;;;;;;20.93;83.78;100159.56;5027992;28;20053;-73
2023/08/16 01:43:46;;;;;;;16.55;12.25;;;;;;;21.01;83.43;100157.97;5027302;28;20029;-73
2023/08/16 01:46:14;;;;;;;17.15;10.75;;;;;;;21.03;83.06;100159.25;5027601;28;20033;-73
2023/08/16 01:48:40;;;;;;;18.80;10.98;;;;;;;21.04;82.97;100160.88;5028055;28;20097;-74
2023/08/16 01:51:06;;;;;;;15.93;11.40;;;;;;;20.98;83.04;100149.16;5028351;28;20088;-73
2023/08/16 01:53:33;;;;;;;17.27;10.52;;;;;;;20.98;82.95;100149.16;5027202;28;20127;-73
2023/08/16 01:55:58;;;;;;;17.90;10.98;;;;;;;21.00;83.01;100151.59;5027491;28;20029;-76
2023/08/16 01:58:24;;;;;;;19.15;11.07;;;;;;;20.97;83.14;100153.06;5026007;28;20033;-74
2023/08/16 02:00:49;;;;;;;17.90;10.45;;;;;;;20.95;82.87;100148.97;5022938;28;20037;-74
2023/08/16 02:03:14;;;;;;;18.37;11.10;;;;;;;20.95;83.05;100143.44;5025620;28;20060;-74
2023/08/16 02:05:41;;;;;;;14.63;9.90;;;;;;;20.93;83.34;100142.94;5027545;28;20270;-73
2023/08/16 02:08:06;;;;;;;17.23;11.45;;;;;;;20.95;82.74;100151.75;5027862;28;20286;-72
2023/08/16 02:10:32;;;;;;;17.58;10.85;;;;;;;20.95;82.50;100154.50;5028051;28;20410;-73
2023/08/16 02:12:57;;;;;;;17.13;11.15;;;;;;;20.95;82.95;100154.50;5028122;28;20029;-73
2023/08/16 02:15:22;;;;;;;18.88;11.60;;;;;;;20.94;82.39;100163.94;5009958;28;20037;-76
2023/08/16 02:17:48;;;;;;;15.98;10.77;;;;;;;20.83;82.81;100164.28;5027747;28;20398;-73
2023/08/16 02:20:13;;;;;;;14.37;10.20;;;;;;;20.83;82.94;100158.72;5027383;28;20839;-74
2023/08/16 02:22:39;;;;;;;11.27;8.93;;;;;;;20.87;82.60;100164.44;5027956;28;20251;-76
2023/08/16 02:25:05;;;;;;;17.48;10.07;;;;;;;20.88;82.67;100161.34;5027933;28;20041;-73
2023/08/16 02:27:32;;;;;;;14.45;9.80;;;;;;;20.85;82.46;100159.22;5027807;28;20082;-73
2023/08/16 02:29:57;;;;;;;14.38;10.95;;;;;;;20.85;82.66;100153.69;5027725;28;20029;-73
2023/08/16 02:32:23;;;;;;;23.63;11.32;;;;;;;20.86;82.72;100158.09;5027161;28;20026;-73
2023/08/16 02:34:48;;;;;;;19.45;11.40;;;;;;;20.85;82.46;100162.00;5026594;28;20022;-72
2023/08/16 02:37:13;;;;;;;15.67;11.13;;;;;;;20.82;82.29;100157.13;5024577;28;20029;-74
2023/08/16 02:39:38;;;;;;;20.00;12.10;;;;;;;20.82;82.20;100157.13;5027108;28;20612;-73
2023/08/16 02:42:04;;;;;;;14.60;10.60;;;;;;;20.80;82.20;100164.09;5026666;28;20293;-73
2023/08/16 02:44:29;;;;;;;17.70;11.05;;;;;;;20.78;82.07;100161.66;5027856;28;20255;-73
2023/08/16 02:46:55;;;;;;;19.10;9.77;;;;;;;20.75;81.59;100170.63;5027001;28;20033;-74
2023/08/16 02:49:20;;;;;;;18.33;11.85;;;;;;;20.67;82.03;100168.66;5030569;28;20060;-73
2023/08/16 02:51:45;;;;;;;18.27;12.13;;;;;;;20.64;82.34;100165.38;5032240;28;20037;-73
2023/08/16 02:54:10;;;;;;;15.63;10.70;;;;;;;20.56;82.49;100160.66;5030424;28;20790;-73
2023/08/16 02:56:36;;;;;;;20.87;12.90;;;;;;;20.41;83.56;100157.22;5032524;28;20251;-73
2023/08/16 02:59:01;;;;;;;21.10;12.97;;;;;;;20.47;83.30;100162.59;5028839;28;20258;-73
2023/08/16 03:01:26;;;;;;;18.00;13.20;;;;;;;20.52;83.24;100166.03;5032241;28;20277;-77
2023/08/16 03:03:52;;;;;;;22.40;12.95;;;;;;;20.58;83.00;100166.69;5032610;28;20270;-77
2023/08/16 03:06:17;;;;;;;18.67;12.20;;;;;;;20.63;82.69;100171.25;5032416;28;20378;-77
2023/08/16 03:08:42;;;;;;;21.00;11.43;;;;;;;20.62;82.68;100170.47;5032746;28;20144;-77
2023/08/16 03:11:08;;;;;;;15.13;10.93;;;;;;;20.61;82.84;100166.03;5033019;28;21592;-76
2023/08/16 03:13:33;;;;;;;19.90;10.90;;;;;;;20.60;82.46;100172.72;5032699;28;20337;-77
2023/08/16 03:15:58;;;;;;;18.70;11.40;;;;;;;20.60;82.47;100167.19;5032890;28;20104;-76
2023/08/16 03:18:23;;;;;;;18.42;10.90;;;;;;;20.59;82.51;100171.09;5032362;28;20262;-77
2023/08/16 03:20:49;;;;;;;19.90;11.20;;;;;;;20.55;82.15;100164.56;5032479;28;20037;-77
2023/08/16 03:23:15;;;;;;;18.00;11.80;;;;;;;20.54;82.72;100162.94;5033166;28;20791;-77
2023/08/16 03:25:41;;;;;;;17.08;11.15;;;;;;;20.59;82.29;100164.72;5032152;28;20021;-77
2023/08/16 03:28:06;;;;;;;17.85;11.38;;;;;;;20.58;82.29;100168.66;5032695;28;20080;-76
2023/08/16 03:30:31;;;;;;;18.40;11.32;;;;;;;20.53;82.48;100161.31;5032338;28;20045;-77
2023/08/16 03:32:57;;;;;;;16.45;10.48;;;;;;;20.55;82.73;100172.88;5032820;28;20026;-77
2023/08/16 03:35:22;;;;;;;18.98;10.43;;;;;;;20.52;82.80;100168.78;5032088;28;20719;-78
2023/08/16 03:37:47;;;;;;;15.77;11.60;;;;;;;20.50;82.88;100168.28;5031677;28;20037;-76
2023/08/16 03:40:14;;;;;;;17.03;10.87;;;;;;;20.53;82.99;100167.66;5030831;28;20025;-77
2023/08/16 03:42:39;;;;;;;19.55;12.70;;;;;;;20.52;83.14;100171.56;5031257;28;20878;-76
2023/08/16 03:45:05;;;;;;;17.80;12.53;;;;;;;20.48;83.48;100167.00;5030523;28;20029;-77
2023/08/16 03:47:32;;;;;;;18.75;11.80;;;;;;;20.51;83.36;100169.94;5030791;28;20338;-77
2023/08/16 03:49:59;;;;;;;25.45;12.18;;;;;;;20.52;83.41;100174.31;5032027;28;20117;-77
2023/08/16 03:52:24;;;;;;;18.95;12.35;;;;;;;20.54;83.26;100174.03;5031311;28;20037;-78
2023/08/16 03:54:51;;;;;;;18.73;11.75;;;;;;;20.54;83.10;100174.03;5031861;28;20071;-77
2023/08/16 03:57:16;;;;;;;16.67;11.93;;;;;;;20.54;83.46;100179.56;5014566;28;20696;-77
2023/08/16 03:59:42;;;;;;;19.05;12.93;;;;;;;20.52;83.51;100181.84;5031052;28;20108;-77
2023/08/16 04:02:07;;;;;;;20.40;13.83;;;;;;;20.50;83.38;100184.13;5029787;28;20467;-77
2023/08/16 04:04:32;;;;;;;16.27;12.50;;;;;;;20.50;83.66;100184.91;5025502;28;20251;-77
2023/08/16 04:06:57;;;;;;;21.03;14.73;;;;;;;20.48;83.70;100184.41;5027971;28;20040;-78
2023/08/16 04:09:23;;;;;;;20.58;13.43;;;;;;;20.48;83.71;100194.69;5026635;28;20286;-78
2023/08/16 04:11:50;;;;;;;22.08;13.68;;;;;;;20.48;83.84;100187.19;5028674;28;20040;-78
2023/08/16 04:14:15;;;;;;;20.58;13.90;;;;;;;20.49;83.76;100188.00;5030441;28;20036;-78
2023/08/16 04:16:40;;;;;;;22.77;12.53;;;;;;;20.45;83.79;100181.47;5031736;28;20026;-77
2023/08/16 04:19:06;;;;;;;19.50;13.55;;;;;;;20.44;83.77;100182.63;5031083;28;20274;-77
2023/08/16 04:21:31;;;;;;;21.40;14.17;;;;;;;20.41;83.95;100182.13;5031366;28;20017;-77
2023/08/16 04:23:57;;;;;;;24.98;13.45;;;;;;;20.37;83.94;100185.88;5030629;28;20623;-78
2023/08/16 04:26:22;;;;;;;22.87;15.43;;;;;;;20.41;84.21;100187.69;5031996;28;20026;-78
2023/08/16 04:28:47;;;;;;;20.43;13.47;;;;;;;20.40;84.04;100179.69;5031958;28;20278;-77
2023/08/16 04:31:13;;;;;;;23.92;14.90;;;;;;;20.40;84.35;100185.25;5032173;28;20266;-76
2023/08/16 04:33:38;;;;;;;15.80;11.82;;;;;;;20.42;84.02;100177.44;5033458;28;20489;-77
2023/08/16 04:36:03;;;;;;;18.27;12.37;;;;;;;20.45;83.87;100182.31;5030693;28;20087;-76
2023/08/16 04:38:28;;;;;;;24.00;13.63;;;;;;;20.49;83.82;100188.00;5030518;28;20269;-77
2023/08/16 04:40:54;;;;;;;18.63;12.73;;;;;;;20.48;83.84;100187.19;5030731;28;20037;-77
2023/08/16 04:43:19;;;;;;;18.35;12.77;;;;;;;20.48;83.83;100191.94;5031222;28;20317;-78
2023/08/16 04:45:45;;;;;;;20.95;13.40;;;;;;;20.48;84.09;100184.41;5030205;28;20024;-77
2023/08/16 04:48:11;;;;;;;19.52;13.88;;;;;;;20.52;84.02;100181.84;5030572;28;20030;-77
2023/08/16 04:50:36;;;;;;;27.43;13.87;;;;;;;20.50;84.10;100190.44;5030563;28;20075;-78
2023/08/16 04:53:02;;;;;;;20.25;13.65;;;;;;;20.54;84.04;100196.19;5031246;28;20266;-77
2023/08/16 04:55:28;;;;;;;21.75;15.00;;;;;;;20.55;83.96;100195.03;5034513;28;20033;-77
2023/08/16 04:57:53;;;;;;;20.67;14.82;;;;;;;20.41;84.57;100198.75;5031042;28;20044;-77
2023/08/16 05:00:19;;;;;;;21.77;15.23;;;;;;;20.44;84.71;100190.94;5031215;28;20021;-78
2023/08/16 05:02:45;;;;;;;33.15;16.55;;;;;;;20.42;84.79;100202.34;5030966;28;20053;-78
2023/08/16 05:05:10;;;;;;;24.88;16.17;;;;;;;20.42;84.93;100199.56;5031494;28;20094;-77
2023/08/16 05:07:35;;;;;;;19.92;14.65;;;;;;;20.41;85.01;100193.22;5030951;28;20026;-77
2023/08/16 05:10:01;;;;;;;18.63;14.17;;;;;;;20.46;85.33;100196.97;5032234;28;20061;-77
2023/08/16 05:12:27;;;;;;;21.67;14.50;;;;;;;20.40;85.73;100197.09;5027823;28;20678;-73
2023/08/16 05:14:52;;;;;;;18.88;13.82;;;;;;;20.46;85.37;100199.75;5028391;28;20149;-72
2023/08/16 05:17:17;;;;;;;19.93;14.07;;;;;;;20.50;85.17;100200.72;5029022;28;20072;-73
2023/08/16 05:19:42;;;;;;;26.02;14.93;;;;;;;20.47;85.19;100206.91;5028603;28;20258;-73
2023/08/16 05:22:08;;;;;;;25.97;15.83;;;;;;;20.53;85.06;100214.75;5030125;28;20041;-77
2023/08/16 05:24:33;;;;;;;29.43;17.27;;;;;;;20.57;84.89;100212.13;5029797;28;20350;-77
2023/08/16 05:26:58;;;;;;;21.20;15.83;;;;;;;20.59;84.86;100215.41;5031176;28;20323;-77
2023/08/16 05:29:23;;;;;;;22.53;16.43;;;;;;;20.58;85.12;100212.97;5029567;28;20771;-78
2023/08/16 05:31:49;;;;;;;27.20;16.53;;;;;;;20.66;84.88;100220.47;5023784;28;20259;-78
2023/08/16 05:34:16;;;;;;;28.60;16.15;;;;;;;20.69;84.84;100235.63;5023447;28;20258;-78
2023/08/16 05:36:48;;;;;;;26.98;16.45;;;;;;;20.71;85.19;100256.31;5023961;28;20052;-78
2023/08/16 05:39:14;;;;;;;25.73;15.98;;;;;;;20.72;85.07;100251.59;5023571;28;20026;-78
2023/08/16 05:41:39;;;;;;;25.92;15.38;;;;;;;20.67;85.53;100257.28;5023234;28;20658;-77
2023/08/16 05:44:05;;;;;;;19.80;14.70;;;;;;;20.66;85.09;100253.72;5023148;28;20067;-78
2023/08/16 05:46:30;;;;;;;23.00;14.13;;;;;;;20.67;85.19;100246.19;5023336;28;20094;-77
2023/08/16 05:48:55;;;;;;;22.58;15.48;;;;;;;20.72;84.93;100251.59;5023692;28;20128;-78
2023/08/16 05:51:21;;;;;;;22.43;15.40;;;;;;;20.78;84.98;100261.41;5022801;28;20064;-78
2023/08/16 05:53:46;;;;;;;24.90;15.20;;;;;;;20.73;85.07;100267.06;5022929;28;20267;-78
2023/08/16 05:56:11;;;;;;;23.47;14.60;;;;;;;20.75;85.03;100259.25;5022738;28;20286;-77
2023/08/16 05:58:37;;;;;;;22.67;15.13;;;;;;;20.74;85.13;100268.72;5022996;28;20259;-78
2023/08/16 06:01:02;;;;;;;24.77;15.30;;;;;;;20.62;85.33;100263.81;5023075;28;20274;-78
2023/08/16 06:03:27;;;;;;;28.48;16.25;;;;;;;20.74;85.55;100271.50;5022735;28;20305;-78
2023/08/16 06:05:52;;;;;;;29.30;17.77;;;;;;;20.75;85.29;100268.38;5023285;28;20566;-78
2023/08/16 06:08:18;;;;;;;30.57;16.03;;;;;;;20.74;85.08;100265.94;5023156;28;20074;-78
2023/08/16 06:10:43;;;;;;;18.53;14.03;;;;;;;20.77;85.23;100268.06;5023447;28;20265;-78
2023/08/16 06:13:08;;;;;;;24.63;12.97;;;;;;;20.82;85.05;100256.84;5023124;28;20258;-78
2023/08/16 06:15:33;;;;;;;23.63;14.33;;;;;;;20.84;85.18;100262.06;5022120;28;20269;-78
2023/08/16 06:17:59;;;;;;;22.50;12.23;;;;;;;20.77;84.26;100252.25;5023027;28;20080;-78
2023/08/16 06:20:24;;;;;;;18.17;11.02;;;;;;;20.65;84.92;100257.59;5022531;28;20051;-77
2023/08/16 06:22:49;;;;;;;20.00;11.10;;;;;;;20.71;84.95;100261.84;5024555;28;20040;-78
2023/08/16 06:25:15;;;;;;;16.33;10.70;;;;;;;20.75;84.71;100253.72;5026275;28;20617;-78
2023/08/16 06:27:40;;;;;;;17.58;9.60;;;;;;;20.75;83.84;100251.78;5027080;28;20290;-78
2023/08/16 06:30:06;;;;;;;15.70;9.77;;;;;;;20.79;84.07;100256.69;5026833;28;20043;-77
2023/08/16 06:32:31;;;;;;;17.48;10.02;;;;;;;20.87;83.88;100259.44;5026762;28;20499;-78
2023/08/16 06:34:57;;;;;;;15.27;9.03;;;;;;;20.88;83.83;100261.09;5026535;28;20049;-77
2023/08/16 06:37:23;;;;;;;13.68;8.18;;;;;;;20.85;83.82;100255.38;5026729;28;20266;-78
2023/08/16 06:39:48;;;;;;;14.65;8.52;;;;;;;20.88;83.01;100266.63;5026864;28;20627;-78
2023/08/16 06:42:13;;;;;;;12.80;8.73;;;;;;;20.93;82.87;100262.88;5026255;28;20252;-77
2023/08/16 06:44:39;;;;;;;15.93;9.50;;;;;;;20.93;82.48;100259.31;5026276;28;20071;-78
2023/08/16 06:47:04;;;;;;;14.00;8.40;;;;;;;20.93;82.84;100256.53;5026609;28;20267;-78
2023/08/16 06:49:30;;;;;;;15.00;8.13;;;;;;;20.90;82.54;100269.06;5026346;28;20461;-78
2023/08/16 06:51:55;;;;;;;17.70;8.65;;;;;;;20.88;82.95;100274.13;5026632;28;20037;-77
2023/08/16 06:54:21;;;;;;;14.13;8.82;;;;;;;20.87;83.20;100275.25;5025945;28;20281;-78
2023/08/16 06:56:46;;;;;;;16.10;10.50;;;;;;;20.93;82.93;100273.16;5026541;28;20033;-78
2023/08/16 06:59:11;;;;;;;15.67;9.23;;;;;;;20.96;83.04;100273.34;5026296;28;20360;-77
2023/08/16 07:01:37;;;;;;;14.73;9.80;;;;;;;20.98;82.35;100264.72;5025910;28;20305;-78
2023/08/16 07:04:02;;;;;;;24.88;10.73;;;;;;;20.91;82.04;100269.91;5025531;28;20283;-78
2023/08/16 07:06:31;;;;;;;13.18;8.45;;;;;;;20.96;82.21;100275.28;5025738;28;20048;-78
2023/08/16 07:08:57;;;;;;;17.52;10.80;;;;;;;21.01;82.13;100289.03;5026235;28;20108;-78
2023/08/16 07:11:22;;;;;;;16.50;9.38;;;;;;;21.06;81.30;100290.81;5023928;28;20128;-78
2023/08/16 07:13:47;;;;;;;19.98;11.90;;;;;;;21.01;81.44;100282.66;5025529;28;20037;-77
2023/08/16 07:16:13;;;;;;;17.52;10.60;;;;;;;20.99;81.56;100288.53;5025096;28;20061;-77
2023/08/16 07:18:38;;;;;;;13.57;9.03;;;;;;;20.99;81.88;100285.75;5025705;28;20043;-77
2023/08/16 07:21:03;;;;;;;15.37;11.50;;;;;;;21.07;81.69;100290.47;5026010;28;20312;-77
2023/08/16 07:23:29;;;;;;;18.08;10.07;;;;;;;21.10;82.38;100300.09;5026439;28;20766;-78
2023/08/16 07:25:56;;;;;;;15.18;9.55;;;;;;;21.14;82.31;100301.09;5025818;28;20038;-77
2023/08/16 07:28:23;;;;;;;17.45;10.20;;;;;;;21.20;82.04;100304.53;5025997;28;20171;-78
2023/08/16 07:30:55;;;;;;;20.08;9.85;;;;;;;21.16;81.74;100298.81;5026307;28;20094;-75
2023/08/16 07:33:21;;;;;;;14.65;9.75;;;;;;;21.17;81.85;100300.47;5024584;28;20034;-74
2023/08/16 07:35:47;;;;;;;19.45;10.52;;;;;;;21.18;81.81;100301.25;5024704;28;20033;-73
2023/08/16 07:38:12;;;;;;;17.58;11.60;;;;;;;21.13;81.26;100301.44;5025536;28;20596;-73
2023/08/16 07:40:38;;;;;;;12.20;9.20;;;;;;;21.07;81.43;100301.56;5026221;28;20045;-78
2023/08/16 07:43:03;;;;;;;16.45;11.23;;;;;;;21.08;81.54;100302.38;5025457;28;20030;-77
2023/08/16 07:45:28;;;;;;;16.20;9.77;;;;;;;21.11;81.62;100308.09;5024938;28;20072;-78
2023/08/16 07:47:54;;;;;;;17.07;10.20;;;;;;;21.06;81.54;100291.63;5025910;28;20282;-77
2023/08/16 07:50:19;;;;;;;13.07;9.17;;;;;;;21.13;81.44;100293.09;5024622;28;20381;-78
2023/08/16 07:52:45;;;;;;;14.47;9.73;;;;;;;21.20;81.19;100293.44;5026727;28;20247;-83
2023/08/16 07:55:10;;;;;;;16.30;11.23;;;;;;;21.23;81.04;100299.13;5026315;28;20270;-84
2023/08/16 07:57:36;;;;;;;15.32;10.63;;;;;;;21.26;81.31;100302.41;5025948;28;20062;-80
2023/08/16 08:00:01;;;;;;;15.17;9.17;;;;;;;21.31;81.33;100299.50;5025191;28;20419;-79
2023/08/16 08:02:26;;;;;;;20.92;11.77;;;;;;;21.34;80.90;100293.28;5025157;28;20058;-79
2023/08/16 08:04:52;;;;;;;18.27;10.30;;;;;;;21.41;80.82;100292.78;5024979;28;20034;-77
2023/08/16 08:07:18;;;;;;;18.10;11.32;;;;;;;21.45;81.19;100299.31;5025259;28;20301;-80
2023/08/16 08:09:43;;;;;;;15.98;11.48;;;;;;;21.49;81.24;100316.94;5025476;28;20041;-80
2023/08/16 08:12:09;;;;;;;19.33;10.95;;;;;;;21.44;80.80;100315.13;5024885;28;20033;-78
2023/08/16 08:14:34;;;;;;;21.27;13.40;;;;;;;21.45;80.64;100322.34;5024418;28;20508;-78
2023/08/16 08:16:59;;;;;;;19.23;10.95;;;;;;;21.51;80.58;100311.88;5007187;28;20025;-79
2023/08/16 08:19:25;;;;;;;17.38;10.93;;;;;;;21.52;80.26;100316.28;5024735;28;20033;-80
2023/08/16 08:21:50;;;;;;;22.98;12.88;;;;;;;21.52;79.79;100307.97;5024470;28;20061;-79
2023/08/16 08:24:16;;;;;;;21.77;13.15;;;;;;;21.51;79.70;100308.28;5024665;28;20029;-80
2023/08/16 08:26:41;;;;;;;21.13;12.07;;;;;;;21.56;79.43;100313.69;5024627;28;20752;-80
2023/08/16 08:29:06;;;;;;;19.55;12.65;;;;;;;21.54;79.42;100311.22;5024596;28;20190;-81
2023/08/16 08:31:32;;;;;;;24.23;13.10;;;;;;;21.60;79.70;100314.66;5025062;28;20029;-78
2023/08/16 08:33:57;;;;;;;23.33;13.38;;;;;;;21.59;78.99;100318.56;5024807;28;20036;-80
2023/08/16 08:36:22;;;;;;;26.13;15.47;;;;;;;21.59;79.47;100315.81;5024340;28;20025;-79
2023/08/16 08:38:49;;;;;;;29.33;14.73;;;;;;;21.64;79.21;100328.69;5024725;28;20370;-81
2023/08/16 08:41:14;;;;;;;24.80;15.10;;;;;;;21.61;79.06;100323.78;5024694;28;20692;-82
2023/08/16 08:43:41;;;;;;;27.88;17.38;;;;;;;21.58;79.03;100320.53;5024428;28;20065;-81
2023/08/16 08:46:06;;;;;;;25.73;16.80;;;;;;;21.56;79.59;100322.81;5024727;28;20037;-81
2023/08/16 08:48:33;;;;;;;26.50;16.90;;;;;;;21.56;79.41;100317.25;5025140;28;20095;-82
2023/08/16 08:50:59;;;;;;;30.45;17.77;;;;;;;21.60;79.25;100324.94;5025162;28;20301;-80
2023/08/16 08:53:26;;;;;;;31.48;19.33;;;;;;;21.64;79.91;100325.94;5023961;28;20045;-80
2023/08/16 08:55:54;;;;;;;32.33;18.65;;;;;;;21.70;79.30;100332.94;5024184;28;20031;-80
2023/08/16 08:58:20;;;;;;;32.08;19.77;;;;;;;21.73;79.29;100326.72;5025131;28;20037;-84
2023/08/16 09:00:47;;;;;;;28.52;20.75;;;;;;;21.73;79.28;100331.44;5025961;28;20033;-81
2023/08/16 09:03:14;;;;;;;33.22;20.85;;;;;;;21.73;79.39;100337.00;5026897;28;20068;-79
2023/08/16 09:05:40;;;;;;;30.70;20.77;;;;;;;21.69;79.48;100325.75;5024659;28;20112;-82
2023/08/16 09:08:06;;;;;;;33.78;21.85;;;;;;;21.68;79.32;100332.44;5024380;28;20120;-81
2023/08/16 09:10:38;;;;;;;35.90;21.55;;;;;;;21.66;79.92;100337.50;5024317;28;20419;-82
2023/08/16 09:13:09;;;;;;;33.28;22.85;;;;;;;21.70;80.03;100338.50;5024263;28;20181;-81
2023/08/16 09:15:35;;;;;;;30.40;21.55;;;;;;;21.76;79.87;100337.19;5023605;28;20037;-81
2023/08/16 09:18:12;;;;;;;36.03;22.13;;;;;;;21.81;79.72;100341.72;5024483;28;20129;-82
2023/08/16 09:20:38;;;;;;;33.63;19.98;;;;;;;21.77;80.29;100337.97;5024381;28;20033;-84
2023/08/16 09:23:03;;;;;;;27.80;20.67;;;;;;;21.83;80.46;100341.44;5024845;28;20045;-80
2023/08/16 09:25:29;;;;;;;30.47;23.73;;;;;;;21.87;80.29;100336.84;5005940;28;20040;-81
2023/08/16 09:27:55;;;;;;;33.72;23.58;;;;;;;21.87;80.00;100328.53;5023353;28;20351;-81
2023/08/16 09:30:23;;;;;;;37.03;25.00;;;;;;;21.97;79.94;100328.19;5023940;28;20037;-81
2023/08/16 09:32:48;;;;;;;34.25;24.48;;;;;;;22.00;79.82;100323.94;5024487;28;20037;-85
2023/08/16 09:35:14;;;;;;;35.22;23.17;;;;;;;21.98;79.62;100327.06;5022877;28;20056;-81
2023/08/16 09:37:42;;;;;;;29.77;22.05;;;;;;;21.99;79.52;100327.84;5023731;28;20075;-82
2023/08/16 09:40:10;;;;;;;27.98;21.08;;;;;;;21.95;79.59;100322.16;5024922;28;20226;-81
2023/08/16 09:42:36;;;;;;;28.05;18.85;;;;;;;21.86;79.71;100319.41;5024461;28;20029;-82
2023/08/16 09:45:02;;;;;;;34.70;21.15;;;;;;;21.87;79.91;100328.53;5024031;28;20478;-82
2023/08/16 09:47:29;;;;;;;28.33;21.33;;;;;;;21.83;80.26;100331.16;5024056;28;20026;-81
2023/08/16 09:49:55;;;;;;;33.17;21.23;;;;;;;21.84;80.16;100331.97;5023820;28;20108;-81
2023/08/16 09:52:20;;;;;;;30.20;19.42;;;;;;;21.87;80.07;100329.34;5022938;28;20060;-76
2023/08/16 09:54:51;;;;;;;25.38;17.23;;;;;;;21.87;80.17;100336.84;5023066;28;20057;-79
2023/08/16 09:57:16;;;;;;;29.50;17.73;;;;;;;21.95;79.84;100333.25;5022703;28;20102;-77
2023/08/16 09:59:42;;;;;;;30.25;21.13;;;;;;;21.96;79.23;100329.34;5023289;28;20033;-76
2023/08/16 10:02:11;;;;;;;30.30;17.48;;;;;;;21.97;79.48;100324.63;5022600;28;20167;-80
2023/08/16 10:04:37;;;;;;;26.38;17.90;;;;;;;22.02;79.66;100316.94;5023101;28;20466;-79
2023/08/16 10:07:04;;;;;;;30.23;18.35;;;;;;;22.03;79.51;100324.09;5023559;28;20045;-81
2023/08/16 10:09:32;;;;;;;26.02;20.02;;;;;;;22.06;79.69;100316.25;5023646;28;20029;-81
2023/08/16 10:11:57;;;;;;;33.15;21.50;;;;;;;22.00;79.67;100335.06;5023926;28;20128;-86
2023/08/16 10:14:22;;;;;;;37.38;18.35;;;;;;;21.97;80.21;100330.97;5023898;28;20124;-83
2023/08/16 10:16:53;;;;;;;31.70;20.20;;;;;;;21.98;79.89;100332.63;5024695;28;20095;-81
2023/08/16 10:19:23;;;;;;;38.22;22.48;;;;;;;22.00;79.76;100329.50;5023628;28;20267;-81
2023/08/16 10:21:51;;;;;;;33.42;20.25;;;;;;;22.06;79.87;100328.19;5023300;28;20041;-79
2023/08/16 10:24:17;;;;;;;33.28;20.25;;;;;;;22.04;79.69;100322.16;5005998;28;20132;-83
2023/08/16 10:26:46;;;;;;;39.75;19.38;;;;;;;22.10;79.90;100325.56;5025906;28;20032;-88
2023/08/16 10:29:14;;;;;;;26.38;17.15;;;;;;;22.09;80.01;100318.41;5024570;28;20022;-87
2023/08/16 10:31:44;;;;;;;26.42;17.30;;;;;;;22.08;79.57;100325.91;5024312;28;20037;-87
2023/08/16 10:34:14;;;;;;;27.27;18.98;;;;;;;22.06;79.57;100322.63;5024474;28;20033;-87
2023/08/16 10:36:39;;;;;;;30.38;19.00;;;;;;;22.07;79.81;100323.47;5024308;28;20034;-85
2023/08/16 10:39:07;;;;;;;29.60;17.70;;;;;;;22.10;79.59;100317.22;5006957;28;20033;-85
2023/08/16 10:41:40;;;;;;;29.13;17.90;;;;;;;22.12;79.33;100321.31;5024546;28;20049;-87
2023/08/16 10:44:07;;;;;;;32.88;17.17;;;;;;;22.11;79.35;100318.88;5003054;28;20042;-86
2023/08/16 10:46:36;;;;;;;33.15;19.25;;;;;;;22.08;79.80;100331.44;5024076;28;20490;-83
2023/08/16 10:49:11;;;;;;;29.10;17.60;;;;;;;22.07;80.23;100329.00;5022485;28;20049;-84
2023/08/16 10:51:44;;;;;;;30.10;19.17;;;;;;;22.08;79.72;100339.78;5023386;28;20938;-83
2023/08/16 10:54:10;;;;;;;31.88;19.42;;;;;;;22.09;79.71;100341.41;5023335;28;20052;-83
2023/08/16 10:56:38;;;;;;;30.55;17.02;;;;;;;22.12;79.66;100331.59;5023924;28;20034;-88
2023/08/16 10:59:07;;;;;;;29.13;18.17;;;;;;;22.15;79.49;100328.19;5023953;28;22473;-81
2023/08/16 11:01:32;;;;;;;22.63;14.75;;;;;;;22.23;79.53;100332.06;5024389;28;20124;-86
2023/08/16 11:04:02;;;;;;;34.67;17.33;;;;;;;22.31;79.27;100327.63;5024074;28;20164;-86